• Join FlightAware (Why Join?)
  • Login
  • US Flag 
09:58PM EST


 

Airport Tracker/Info


-or-


 

Live Flight TrackerFlight Track Log ✈ ASQ5941 ✈ 15-Apr-2013 ✈ KORD - KAVP

Flight Track Log - Related Links

Times and Time Zones

All times are in EDT time to prevent confusion due to time zone crossing. See the ASQ5941 flight status page for this flight to view local times or setup timezone preferences in your user account.

Time Position Orientation Groundspeed Altitude Reporting Facility
EDT Latitude Longitude Course Direction KTS MPH feet Rate Location/Type
02:54PM 41.9333 -87.9000 80° East 173 199 2,600  Level Chicago TRACON
02:55PM 41.9000 -87.8333 124° Southeast 227 261 4,500 1,200 Climbing Chicago TRACON
02:56PM 42.0440 -87.4332 83° East  Level FlightAware Approximate
02:57PM 42.0644 -87.2736 78° East  Level FlightAware Approximate
02:57PM 41.8986 -87.6383 90° East 286 329 6,300  Level Chicago Center
02:58PM 42.0892 -87.1150 77° East  Level FlightAware Approximate
02:58PM 41.9367 -87.5361 63° Northeast 308 354 8,900  Level Chicago Center
02:59PM 42.1056 -86.9550 80° East  Level FlightAware Approximate
02:59PM 41.9753 -87.4358 63° Northeast 305 351 10,800  Level Chicago Center
03:00PM 42.0161 -87.3222 64° Northeast 336 387 12,300 1,380 Climbing Chicago Center
03:01PM 42.0608 -87.2044 63° Northeast 352 405 13,700 1,080 Climbing Chicago Center
03:02PM 42.1069 -87.0761 64° Northeast 379 436 14,600 1,140 Climbing Chicago Center
03:03PM 42.1186 -86.8989 85° East 396 456 16,100 1,260 Climbing Chicago Center
03:04PM 42.1239 -86.7456 87° East 406 467 17,300 1,080 Climbing Chicago Center
03:05PM 42.1292 -86.5997 87° East 417 480 18,400 1,020 Climbing Chicago Center
03:06PM 42.1350 -86.4406 87° East 425 489 19,500 1,200 Climbing Chicago Center
03:07PM 42.1411 -86.2444 88° East 435 501 20,900 1,200 Climbing Chicago Center
03:08PM 42.1444 -86.0769 88° East 445 512 22,000 1,020 Climbing Chicago Center
03:09PM 42.1431 -85.9242 91° East 445 512 23,100 1,020 Climbing Chicago Center
03:10PM 42.1417 -85.7572 91° East 447 514 24,200 1,140 Climbing Chicago Center
03:11PM 42.1397 -85.5550 91° East 451 519 25,500 1,200 Climbing Chicago Center
03:12PM 42.1367 -85.3881 91° East 449 517 26,700 1,020 Climbing Chicago Center
03:13PM 42.1356 -85.2200 90° East 450 518 27,700 960 Climbing Chicago Center
03:14PM 42.1344 -85.0483 90° East 459 528 28,700 1,020 Climbing Chicago Center
03:15PM 42.1317 -84.8808 91° East 453 521 29,800 960 Climbing Chicago Center
03:16PM 42.1281 -84.7117 92° East 453 521 30,800 540 Climbing Chicago Center
03:17PM 42.1242 -84.5019 91° East 468 539 31,000 60 Climbing Chicago Center
03:18PM 42.1411 -84.3167 83° East 498 573 31,000  Level Chicago Center
03:19PM 42.1567 -84.1492 83° East 494 568 31,000  Level Cleveland Center
03:20PM 42.1792 -83.9597 81° East 502 578 31,000 420 Level Cleveland Center
03:21PM 42.1992 -83.7731 82° East 507 583 31,900 960 Climbing Cleveland Center
03:22PM 42.2189 -83.5861 82° East 496 571 33,000 540 Climbing Cleveland Center
03:23PM 42.2297 -83.3986 85° East 503 579 33,000  Level Cleveland Center
03:24PM 42.2306 -83.1828 90° East 503 579 33,000  Level Cleveland Center
03:25PM 42.2308 -82.9892 90° East 508 585 33,000  Level Cleveland Center
03:26PM 42.2347 -82.7958 88° East 513 590 33,000  Level Cleveland Center
03:27PM 42.2319 -82.5994 91° East 518 596 33,000  Level Cleveland Center
03:28PM 42.2331 -82.4089 89° East 512 589 33,000  Level Cleveland Center
03:29PM 42.2339 -82.2153 90° East 512 589 33,000  Level Cleveland Center
03:30PM 42.2344 -82.0217 90° East 512 589 33,000  Level Cleveland Center
03:31PM 42.2347 -81.8283 90° East 517 595 33,000  Level Cleveland Center
03:32PM 42.2322 -81.6375 91° East 512 589 33,000  Level Cleveland Center
03:33PM 42.2317 -81.4608 90° East 518 596 33,000  Level Cleveland Center
03:34PM 42.2289 -81.2703 91° East 513 590 33,000  Level Cleveland Center
03:35PM 42.2194 -81.0739 94° East 518 596 33,000  Level Cleveland Center
03:36PM 42.1972 -80.8831 99° East 518 596 33,000  Level Cleveland Center
03:37PM 42.1767 -80.6869 98° East 524 603 33,000  Level Cleveland Center
03:38PM 42.1517 -80.4767 99° East 524 603 33,000  Level Cleveland Center
03:39PM 42.1283 -80.2836 99° East 524 603 33,000  Level Cleveland Center
03:40PM 42.1069 -80.0961 99° East 524 603 33,000  Level Cleveland Center
03:41PM 42.0831 -79.9061 100° East 517 595 33,000  Level Cleveland Center
03:42PM 42.0589 -79.7133 100° East 517 595 33,000  Level Cleveland Center
03:43PM 42.0342 -79.5181 100° East 523 602 33,000 -420 Level Cleveland Center
03:45PM 41.9842 -79.1361 100° East 523 602 31,900 -840 Descending Cleveland Center
03:46PM 41.9608 -78.9525 100° East 512 589 30,500 -1,500 Descending Cleveland Center
03:47PM 41.9353 -78.7661 100° East 507 583 29,000 -1,260 Descending Cleveland Center
03:48PM 41.9111 -78.5769 100° East 507 583 28,000 -540 Descending Cleveland Center
03:49PM 41.8872 -78.3964 100° East 507 583 28,000  Level Cleveland Center
03:50PM 41.8583 -78.2050 101° East 502 578 28,000 -540 Level Cleveland Center
03:51PM 41.8306 -78.0003 100° East 498 573 26,900 -1,440 Descending New York Center
03:52PM 41.8058 -77.8194 100° East 503 579 25,000 -1,740 Descending New York Center
03:53PM 41.7839 -77.6642 101° East 490 564 23,400 -1,020 Descending New York Center
03:54PM 41.7603 -77.4947 101° East 471 542 23,000 -240 Descending New York Center
03:55PM 41.7344 -77.3225 101° East 471 542 23,000 -1,020 Level New York Center
03:56PM 41.7069 -77.1364 101° East 466 536 21,000 -2,160 Descending New York Center
03:57PM 41.6839 -76.9814 101° East 448 516 18,800 -2,160 Descending New York Center
03:58PM 41.6589 -76.8208 102° East 438 504 16,700 -1,740 Descending New York Center
03:59PM 41.6369 -76.6800 102° East 425 489 15,300 -1,680 Descending New York Center
04:00PM 41.6181 -76.5536 101° East 366 421 13,500 -1,800 Descending New York Center
04:01PM 41.5986 -76.4353 102° East 335 386 11,800 -1,200 Descending New York Center
04:02PM 41.5828 -76.3342 102° East 319 367 11,200 -1,080 Descending New York Center
04:03PM 41.5650 -76.2217 102° East 291 335 9,700 -1,320 Descending New York Center
04:04PM 41.5444 -76.1258 106° East 272 313 8,600 -1,140 Descending New York Center
04:05PM 41.5192 -76.0353 110° East 257 296 7,500 -1,080 Descending New York Center
04:06PM 41.5064 -75.9511 101° East 257 296 6,500 -1,200 Descending New York Center
04:07PM 41.4897 -75.8528 103° East 257 296 5,100 -1,320 Descending New York Center
04:08PM 41.4581 -75.7647 116° Southeast 263 303 3,900 -1,260 Descending New York Center